sensor_id;sensor_type;location;lat;lon;timestamp;P1;durP1;ratioP1;P2;durP2;ratioP2
57315;SDS011;43156;50.942;18.144;2023-08-20T00:00:10;11.60;;;10.60;;
57315;SDS011;43156;50.942;18.144;2023-08-20T00:02:45;12.30;;;11.10;;
57315;SDS011;43156;50.942;18.144;2023-08-20T00:05:13;13.20;;;11.30;;
57315;SDS011;43156;50.942;18.144;2023-08-20T00:07:42;12.70;;;11.70;;
57315;SDS011;43156;50.942;18.144;2023-08-20T00:10:11;14.00;;;12.60;;
57315;SDS011;43156;50.942;18.144;2023-08-20T00:12:48;13.50;;;11.10;;
57315;SDS011;43156;50.942;18.144;2023-08-20T00:15:24;13.10;;;11.80;;
57315;SDS011;43156;50.942;18.144;2023-08-20T00:18:02;13.50;;;12.20;;
57315;SDS011;43156;50.942;18.144;2023-08-20T00:20:34;13.40;;;12.10;;
57315;SDS011;43156;50.942;18.144;2023-08-20T00:23:08;13.80;;;12.60;;
57315;SDS011;43156;50.942;18.144;2023-08-20T00:25:43;12.60;;;11.50;;
57315;SDS011;43156;50.942;18.144;2023-08-20T00:30:44;13.30;;;12.00;;
57315;SDS011;43156;50.942;18.144;2023-08-20T00:33:12;13.00;;;11.50;;
57315;SDS011;43156;50.942;18.144;2023-08-20T00:35:52;13.60;;;12.40;;
57315;SDS011;43156;50.942;18.144;2023-08-20T00:38:24;15.10;;;13.50;;
57315;SDS011;43156;50.942;18.144;2023-08-20T00:41:01;13.70;;;12.30;;
57315;SDS011;43156;50.942;18.144;2023-08-20T00:43:39;13.40;;;12.00;;
57315;SDS011;43156;50.942;18.144;2023-08-20T00:46:10;14.30;;;12.10;;
57315;SDS011;43156;50.942;18.144;2023-08-20T00:48:50;12.10;;;11.00;;
57315;SDS011;43156;50.942;18.144;2023-08-20T00:51:21;12.20;;;11.10;;
57315;SDS011;43156;50.942;18.144;2023-08-20T00:54:09;12.40;;;11.30;;
57315;SDS011;43156;50.942;18.144;2023-08-20T00:56:45;13.20;;;11.90;;
57315;SDS011;43156;50.942;18.144;2023-08-20T00:59:14;13.20;;;12.00;;
57315;SDS011;43156;50.942;18.144;2023-08-20T01:01:46;14.00;;;12.30;;
57315;SDS011;43156;50.942;18.144;2023-08-20T01:04:28;15.80;;;14.20;;
57315;SDS011;43156;50.942;18.144;2023-08-20T01:12:46;13.70;;;12.40;;
57315;SDS011;43156;50.942;18.144;2023-08-20T01:15:19;13.60;;;11.80;;
57315;SDS011;43156;50.942;18.144;2023-08-20T01:17:50;13.10;;;11.70;;
57315;SDS011;43156;50.942;18.144;2023-08-20T01:20:18;12.40;;;11.20;;
57315;SDS011;43156;50.942;18.144;2023-08-20T01:23:16;13.80;;;12.40;;
57315;SDS011;43156;50.942;18.144;2023-08-20T01:26:20;13.70;;;12.30;;
57315;SDS011;43156;50.942;18.144;2023-08-20T01:29:05;12.40;;;11.40;;
57315;SDS011;43156;50.942;18.144;2023-08-20T01:31:37;12.20;;;11.00;;
57315;SDS011;43156;50.942;18.144;2023-08-20T01:34:12;12.10;;;11.00;;
57315;SDS011;43156;50.942;18.144;2023-08-20T01:36:45;12.40;;;11.30;;
57315;SDS011;43156;50.942;18.144;2023-08-20T01:39:30;13.00;;;11.80;;
57315;SDS011;43156;50.942;18.144;2023-08-20T01:42:05;14.10;;;12.90;;
57315;SDS011;43156;50.942;18.144;2023-08-20T01:44:37;14.20;;;12.80;;
57315;SDS011;43156;50.942;18.144;2023-08-20T01:47:11;14.30;;;13.00;;
57315;SDS011;43156;50.942;18.144;2023-08-20T01:49:46;14.30;;;13.10;;
57315;SDS011;43156;50.942;18.144;2023-08-20T01:52:18;15.70;;;14.10;;
57315;SDS011;43156;50.942;18.144;2023-08-20T01:54:50;15.60;;;14.10;;
57315;SDS011;43156;50.942;18.144;2023-08-20T01:57:42;14.50;;;13.00;;
57315;SDS011;43156;50.942;18.144;2023-08-20T02:00:14;14.70;;;13.30;;
57315;SDS011;43156;50.942;18.144;2023-08-20T02:02:47;15.40;;;13.90;;
57315;SDS011;43156;50.942;18.144;2023-08-20T02:05:19;13.70;;;12.50;;
57315;SDS011;43156;50.942;18.144;2023-08-20T02:07:49;13.60;;;12.30;;
57315;SDS011;43156;50.942;18.144;2023-08-20T02:10:17;14.00;;;12.10;;
57315;SDS011;43156;50.942;18.144;2023-08-20T02:13:06;15.80;;;13.50;;
57315;SDS011;43156;50.942;18.144;2023-08-20T02:15:42;14.70;;;13.20;;
57315;SDS011;43156;50.942;18.144;2023-08-20T02:18:44;14.90;;;12.90;;
57315;SDS011;43156;50.942;18.144;2023-08-20T02:21:19;14.50;;;13.10;;
57315;SDS011;43156;50.942;18.144;2023-08-20T02:23:55;14.60;;;13.40;;
57315;SDS011;43156;50.942;18.144;2023-08-20T02:26:27;15.30;;;13.70;;
57315;SDS011;43156;50.942;18.144;2023-08-20T02:29:00;14.80;;;13.00;;
57315;SDS011;43156;50.942;18.144;2023-08-20T02:31:32;13.80;;;12.40;;
57315;SDS011;43156;50.942;18.144;2023-08-20T02:34:09;13.40;;;12.20;;
57315;SDS011;43156;50.942;18.144;2023-08-20T02:36:40;13.70;;;12.20;;
57315;SDS011;43156;50.942;18.144;2023-08-20T02:39:15;14.50;;;13.10;;
57315;SDS011;43156;50.942;18.144;2023-08-20T02:41:46;15.30;;;13.20;;
57315;SDS011;43156;50.942;18.144;2023-08-20T02:44:21;14.10;;;12.80;;
57315;SDS011;43156;50.942;18.144;2023-08-20T02:47:04;15.70;;;14.20;;
57315;SDS011;43156;50.942;18.144;2023-08-20T02:49:32;16.30;;;14.70;;
57315;SDS011;43156;50.942;18.144;2023-08-20T02:52:11;15.20;;;13.40;;
57315;SDS011;43156;50.942;18.144;2023-08-20T02:54:40;14.40;;;13.00;;
57315;SDS011;43156;50.942;18.144;2023-08-20T02:57:20;15.20;;;12.70;;
57315;SDS011;43156;50.942;18.144;2023-08-20T02:59:50;15.50;;;13.90;;
57315;SDS011;43156;50.942;18.144;2023-08-20T03:02:21;13.30;;;11.90;;
57315;SDS011;43156;50.942;18.144;2023-08-20T03:04:55;14.10;;;12.80;;
57315;SDS011;43156;50.942;18.144;2023-08-20T03:07:26;15.90;;;14.40;;
57315;SDS011;43156;50.942;18.144;2023-08-20T03:10:05;17.00;;;15.30;;
57315;SDS011;43156;50.942;18.144;2023-08-20T03:12:38;16.00;;;14.40;;
57315;SDS011;43156;50.942;18.144;2023-08-20T03:15:20;15.30;;;13.80;;
57315;SDS011;43156;50.942;18.144;2023-08-20T03:17:49;15.30;;;13.80;;
57315;SDS011;43156;50.942;18.144;2023-08-20T03:20:19;13.80;;;12.50;;
57315;SDS011;43156;50.942;18.144;2023-08-20T03:22:54;14.90;;;13.40;;
57315;SDS011;43156;50.942;18.144;2023-08-20T03:25:25;13.40;;;11.90;;
57315;SDS011;43156;50.942;18.144;2023-08-20T03:28:02;13.20;;;11.90;;
57315;SDS011;43156;50.942;18.144;2023-08-20T03:30:36;13.30;;;12.00;;
57315;SDS011;43156;50.942;18.144;2023-08-20T03:33:07;13.80;;;12.60;;
57315;SDS011;43156;50.942;18.144;2023-08-20T03:35:41;14.40;;;13.00;;
57315;SDS011;43156;50.942;18.144;2023-08-20T03:38:15;13.10;;;11.90;;
57315;SDS011;43156;50.942;18.144;2023-08-20T03:40:47;13.60;;;12.20;;
57315;SDS011;43156;50.942;18.144;2023-08-20T03:43:17;13.50;;;12.30;;
57315;SDS011;43156;50.942;18.144;2023-08-20T03:45:49;14.50;;;13.10;;
57315;SDS011;43156;50.942;18.144;2023-08-20T03:48:23;13.80;;;12.50;;
57315;SDS011;43156;50.942;18.144;2023-08-20T03:51:01;14.10;;;12.60;;
57315;SDS011;43156;50.942;18.144;2023-08-20T03:53:36;15.00;;;13.70;;
57315;SDS011;43156;50.942;18.144;2023-08-20T03:56:18;16.80;;;14.90;;
57315;SDS011;43156;50.942;18.144;2023-08-20T03:58:54;16.50;;;15.00;;
57315;SDS011;43156;50.942;18.144;2023-08-20T04:01:23;16.30;;;14.80;;
57315;SDS011;43156;50.942;18.144;2023-08-20T04:03:57;16.00;;;14.40;;
57315;SDS011;43156;50.942;18.144;2023-08-20T04:06:28;15.70;;;14.30;;
57315;SDS011;43156;50.942;18.144;2023-08-20T04:09:05;15.10;;;13.80;;
57315;SDS011;43156;50.942;18.144;2023-08-20T04:11:35;16.50;;;15.00;;
57315;SDS011;43156;50.942;18.144;2023-08-20T04:14:06;17.10;;;15.30;;
57315;SDS011;43156;50.942;18.144;2023-08-20T04:16:38;17.00;;;15.30;;
57315;SDS011;43156;50.942;18.144;2023-08-20T04:19:10;16.80;;;15.10;;
57315;SDS011;43156;50.942;18.144;2023-08-20T04:21:50;16.20;;;14.60;;
57315;SDS011;43156;50.942;18.144;2023-08-20T04:24:25;15.30;;;13.90;;
57315;SDS011;43156;50.942;18.144;2023-08-20T04:26:58;15.10;;;13.80;;
57315;SDS011;43156;50.942;18.144;2023-08-20T04:29:32;15.70;;;14.30;;
57315;SDS011;43156;50.942;18.144;2023-08-20T04:32:01;16.90;;;15.20;;
57315;SDS011;43156;50.942;18.144;2023-08-20T04:34:30;15.50;;;14.10;;
57315;SDS011;43156;50.942;18.144;2023-08-20T04:37:03;15.40;;;12.90;;
57315;SDS011;43156;50.942;18.144;2023-08-20T04:39:37;13.40;;;12.00;;
57315;SDS011;43156;50.942;18.144;2023-08-20T04:42:10;13.80;;;12.40;;
57315;SDS011;43156;50.942;18.144;2023-08-20T04:44:40;13.70;;;12.40;;
57315;SDS011;43156;50.942;18.144;2023-08-20T04:47:11;14.80;;;13.30;;
57315;SDS011;43156;50.942;18.144;2023-08-20T04:49:55;16.00;;;14.60;;
57315;SDS011;43156;50.942;18.144;2023-08-20T04:52:42;16.70;;;15.10;;
57315;SDS011;43156;50.942;18.144;2023-08-20T04:55:27;15.90;;;14.40;;
57315;SDS011;43156;50.942;18.144;2023-08-20T04:58:03;16.00;;;14.20;;
57315;SDS011;43156;50.942;18.144;2023-08-20T05:00:33;16.80;;;15.20;;
57315;SDS011;43156;50.942;18.144;2023-08-20T05:03:07;16.50;;;15.00;;
57315;SDS011;43156;50.942;18.144;2023-08-20T05:05:50;16.60;;;15.00;;
57315;SDS011;43156;50.942;18.144;2023-08-20T05:10:51;18.70;;;16.80;;
57315;SDS011;43156;50.942;18.144;2023-08-20T05:13:20;18.80;;;16.90;;
57315;SDS011;43156;50.942;18.144;2023-08-20T05:15:55;19.10;;;17.10;;
57315;SDS011;43156;50.942;18.144;2023-08-20T05:18:23;18.20;;;16.40;;
57315;SDS011;43156;50.942;18.144;2023-08-20T05:20:56;17.80;;;16.10;;
57315;SDS011;43156;50.942;18.144;2023-08-20T05:23:31;18.70;;;16.90;;
57315;SDS011;43156;50.942;18.144;2023-08-20T05:26:06;19.30;;;17.20;;
57315;SDS011;43156;50.942;18.144;2023-08-20T05:28:43;19.30;;;17.40;;
57315;SDS011;43156;50.942;18.144;2023-08-20T05:31:18;21.30;;;19.10;;
57315;SDS011;43156;50.942;18.144;2023-08-20T05:33:57;26.60;;;21.00;;
57315;SDS011;43156;50.942;18.144;2023-08-20T05:36:31;21.80;;;19.60;;
57315;SDS011;43156;50.942;18.144;2023-08-20T05:39:03;22.70;;;19.20;;
57315;SDS011;43156;50.942;18.144;2023-08-20T05:41:41;23.00;;;19.50;;
57315;SDS011;43156;50.942;18.144;2023-08-20T05:44:12;21.90;;;19.40;;
57315;SDS011;43156;50.942;18.144;2023-08-20T05:46:52;21.70;;;19.50;;
57315;SDS011;43156;50.942;18.144;2023-08-20T05:49:20;21.80;;;19.60;;
57315;SDS011;43156;50.942;18.144;2023-08-20T05:51:57;22.30;;;19.90;;
57315;SDS011;43156;50.942;18.144;2023-08-20T05:54:30;21.50;;;19.20;;
57315;SDS011;43156;50.942;18.144;2023-08-20T05:57:05;21.50;;;19.40;;
57315;SDS011;43156;50.942;18.144;2023-08-20T05:59:41;23.70;;;20.30;;
57315;SDS011;43156;50.942;18.144;2023-08-20T06:02:23;23.30;;;20.60;;
57315;SDS011;43156;50.942;18.144;2023-08-20T06:04:51;22.90;;;20.40;;
57315;SDS011;43156;50.942;18.144;2023-08-20T06:07:23;21.90;;;19.70;;
57315;SDS011;43156;50.942;18.144;2023-08-20T06:09:55;22.10;;;19.90;;
57315;SDS011;43156;50.942;18.144;2023-08-20T06:12:30;22.00;;;19.90;;
57315;SDS011;43156;50.942;18.144;2023-08-20T06:15:09;22.10;;;19.90;;
57315;SDS011;43156;50.942;18.144;2023-08-20T06:17:44;20.80;;;18.70;;
57315;SDS011;43156;50.942;18.144;2023-08-20T06:20:17;22.30;;;20.10;;
57315;SDS011;43156;50.942;18.144;2023-08-20T06:22:52;23.90;;;20.40;;
57315;SDS011;43156;50.942;18.144;2023-08-20T06:25:24;21.30;;;19.30;;
57315;SDS011;43156;50.942;18.144;2023-08-20T06:27:54;20.80;;;18.60;;
57315;SDS011;43156;50.942;18.144;2023-08-20T06:30:26;20.70;;;18.60;;
57315;SDS011;43156;50.942;18.144;2023-08-20T06:33:01;21.50;;;19.40;;
57315;SDS011;43156;50.942;18.144;2023-08-20T06:35:33;20.40;;;18.40;;
57315;SDS011;43156;50.942;18.144;2023-08-20T06:38:12;20.60;;;18.50;;
57315;SDS011;43156;50.942;18.144;2023-08-20T06:40:45;20.20;;;18.20;;
57315;SDS011;43156;50.942;18.144;2023-08-20T06:43:11;20.20;;;18.30;;
57315;SDS011;43156;50.942;18.144;2023-08-20T06:45:56;19.40;;;17.50;;
57315;SDS011;43156;50.942;18.144;2023-08-20T06:48:32;19.90;;;17.90;;
57315;SDS011;43156;50.942;18.144;2023-08-20T06:51:13;19.50;;;17.70;;
57315;SDS011;43156;50.942;18.144;2023-08-20T06:53:45;21.40;;;19.20;;
57315;SDS011;43156;50.942;18.144;2023-08-20T06:56:24;19.20;;;17.40;;
57315;SDS011;43156;50.942;18.144;2023-08-20T06:58:53;19.20;;;17.50;;
57315;SDS011;43156;50.942;18.144;2023-08-20T07:01:31;20.10;;;18.00;;
57315;SDS011;43156;50.942;18.144;2023-08-20T07:04:02;19.80;;;17.90;;
57315;SDS011;43156;50.942;18.144;2023-08-20T07:06:33;18.80;;;16.90;;
57315;SDS011;43156;50.942;18.144;2023-08-20T07:11:32;18.80;;;17.00;;
57315;SDS011;43156;50.942;18.144;2023-08-20T07:14:02;19.40;;;17.50;;
57315;SDS011;43156;50.942;18.144;2023-08-20T07:16:33;19.00;;;17.10;;
57315;SDS011;43156;50.942;18.144;2023-08-20T07:19:01;17.40;;;15.60;;
57315;SDS011;43156;50.942;18.144;2023-08-20T07:21:32;18.50;;;16.80;;
57315;SDS011;43156;50.942;18.144;2023-08-20T07:24:13;19.00;;;17.10;;
57315;SDS011;43156;50.942;18.144;2023-08-20T07:26:43;17.20;;;15.60;;
57315;SDS011;43156;50.942;18.144;2023-08-20T07:29:15;15.90;;;14.30;;
57315;SDS011;43156;50.942;18.144;2023-08-20T07:31:55;12.90;;;11.80;;
57315;SDS011;43156;50.942;18.144;2023-08-20T07:34:36;13.30;;;12.20;;
57315;SDS011;43156;50.942;18.144;2023-08-20T07:37:06;14.10;;;12.80;;
57315;SDS011;43156;50.942;18.144;2023-08-20T07:39:42;14.00;;;12.70;;
57315;SDS011;43156;50.942;18.144;2023-08-20T07:42:16;12.60;;;11.40;;
57315;SDS011;43156;50.942;18.144;2023-08-20T07:44:48;13.80;;;12.40;;
57315;SDS011;43156;50.942;18.144;2023-08-20T07:47:19;12.90;;;11.70;;
57315;SDS011;43156;50.942;18.144;2023-08-20T07:49:53;11.50;;;10.50;;
57315;SDS011;43156;50.942;18.144;2023-08-20T07:52:23;12.30;;;11.30;;
57315;SDS011;43156;50.942;18.144;2023-08-20T07:54:59;11.00;;;10.00;;
57315;SDS011;43156;50.942;18.144;2023-08-20T07:57:29;11.70;;;10.60;;
57315;SDS011;43156;50.942;18.144;2023-08-20T08:00:01;11.20;;;10.40;;
57315;SDS011;43156;50.942;18.144;2023-08-20T08:02:37;11.60;;;10.50;;
57315;SDS011;43156;50.942;18.144;2023-08-20T08:05:09;11.40;;;10.40;;
57315;SDS011;43156;50.942;18.144;2023-08-20T08:07:41;11.50;;;10.40;;
57315;SDS011;43156;50.942;18.144;2023-08-20T08:10:09;11.70;;;10.40;;
57315;SDS011;43156;50.942;18.144;2023-08-20T08:12:49;11.00;;;10.00;;
57315;SDS011;43156;50.942;18.144;2023-08-20T08:15:22;10.50;;;9.50;;
57315;SDS011;43156;50.942;18.144;2023-08-20T08:20:33;9.90;;;9.10;;
57315;SDS011;43156;50.942;18.144;2023-08-20T08:23:09;10.50;;;9.50;;
57315;SDS011;43156;50.942;18.144;2023-08-20T08:25:43;10.20;;;9.30;;
57315;SDS011;43156;50.942;18.144;2023-08-20T08:28:12;10.60;;;9.70;;
57315;SDS011;43156;50.942;18.144;2023-08-20T08:30:42;10.20;;;9.30;;
57315;SDS011;43156;50.942;18.144;2023-08-20T08:33:19;10.40;;;9.50;;
57315;SDS011;43156;50.942;18.144;2023-08-20T08:36:07;10.00;;;9.10;;
57315;SDS011;43156;50.942;18.144;2023-08-20T08:38:39;10.10;;;9.10;;
57315;SDS011;43156;50.942;18.144;2023-08-20T08:41:14;10.00;;;9.10;;
57315;SDS011;43156;50.942;18.144;2023-08-20T08:43:50;8.20;;;7.40;;
57315;SDS011;43156;50.942;18.144;2023-08-20T08:46:22;8.70;;;8.00;;
57315;SDS011;43156;50.942;18.144;2023-08-20T08:48:51;8.50;;;7.80;;
57315;SDS011;43156;50.942;18.144;2023-08-20T08:51:25;9.40;;;8.60;;
57315;SDS011;43156;50.942;18.144;2023-08-20T08:53:56;9.30;;;8.40;;
57315;SDS011;43156;50.942;18.144;2023-08-20T08:56:30;9.00;;;8.20;;
57315;SDS011;43156;50.942;18.144;2023-08-20T09:01:40;9.30;;;8.50;;
57315;SDS011;43156;50.942;18.144;2023-08-20T09:04:09;8.90;;;8.10;;
57315;SDS011;43156;50.942;18.144;2023-08-20T09:06:44;8.70;;;7.80;;
57315;SDS011;43156;50.942;18.144;2023-08-20T09:09:14;8.60;;;7.80;;
57315;SDS011;43156;50.942;18.144;2023-08-20T09:11:45;8.60;;;7.80;;
57315;SDS011;43156;50.942;18.144;2023-08-20T09:14:22;8.40;;;7.70;;
57315;SDS011;43156;50.942;18.144;2023-08-20T09:17:07;8.40;;;7.70;;
57315;SDS011;43156;50.942;18.144;2023-08-20T09:19:49;8.70;;;8.00;;
57315;SDS011;43156;50.942;18.144;2023-08-20T09:22:24;7.30;;;6.50;;
57315;SDS011;43156;50.942;18.144;2023-08-20T09:24:55;6.80;;;6.20;;
57315;SDS011;43156;50.942;18.144;2023-08-20T09:27:28;7.70;;;6.90;;
57315;SDS011;43156;50.942;18.144;2023-08-20T09:29:57;7.80;;;7.20;;
57315;SDS011;43156;50.942;18.144;2023-08-20T09:32:30;8.60;;;7.80;;
57315;SDS011;43156;50.942;18.144;2023-08-20T09:35:17;7.90;;;7.20;;
57315;SDS011;43156;50.942;18.144;2023-08-20T09:37:45;7.60;;;6.90;;
57315;SDS011;43156;50.942;18.144;2023-08-20T09:40:18;7.60;;;6.90;;
57315;SDS011;43156;50.942;18.144;2023-08-20T09:42:47;7.60;;;7.00;;
57315;SDS011;43156;50.942;18.144;2023-08-20T09:45:30;7.40;;;6.80;;
57315;SDS011;43156;50.942;18.144;2023-08-20T09:48:01;7.70;;;7.10;;
57315;SDS011;43156;50.942;18.144;2023-08-20T09:50:38;7.10;;;6.50;;
57315;SDS011;43156;50.942;18.144;2023-08-20T09:59:04;7.30;;;6.70;;
57315;SDS011;43156;50.942;18.144;2023-08-20T10:01:33;7.10;;;6.50;;
57315;SDS011;43156;50.942;18.144;2023-08-20T10:04:07;8.00;;;7.30;;
57315;SDS011;43156;50.942;18.144;2023-08-20T10:06:41;7.80;;;6.90;;
57315;SDS011;43156;50.942;18.144;2023-08-20T10:09:18;6.80;;;6.20;;
57315;SDS011;43156;50.942;18.144;2023-08-20T10:11:49;7.30;;;6.80;;
57315;SDS011;43156;50.942;18.144;2023-08-20T10:14:37;7.40;;;6.80;;
57315;SDS011;43156;50.942;18.144;2023-08-20T10:17:07;6.90;;;6.30;;
57315;SDS011;43156;50.942;18.144;2023-08-20T10:19:42;7.40;;;6.70;;
57315;SDS011;43156;50.942;18.144;2023-08-20T10:22:13;6.70;;;6.20;;
57315;SDS011;43156;50.942;18.144;2023-08-20T10:24:47;7.10;;;6.50;;
57315;SDS011;43156;50.942;18.144;2023-08-20T10:27:31;7.40;;;6.70;;
57315;SDS011;43156;50.942;18.144;2023-08-20T10:30:10;7.20;;;6.50;;
57315;SDS011;43156;50.942;18.144;2023-08-20T10:32:45;7.40;;;6.80;;
57315;SDS011;43156;50.942;18.144;2023-08-20T10:35:19;6.70;;;6.10;;
57315;SDS011;43156;50.942;18.144;2023-08-20T10:38:11;6.50;;;6.00;;
57315;SDS011;43156;50.942;18.144;2023-08-20T10:40:58;6.70;;;5.80;;
57315;SDS011;43156;50.942;18.144;2023-08-20T10:43:38;6.90;;;6.00;;
57315;SDS011;43156;50.942;18.144;2023-08-20T10:49:01;6.70;;;6.10;;
57315;SDS011;43156;50.942;18.144;2023-08-20T10:51:36;6.50;;;6.00;;
57315;SDS011;43156;50.942;18.144;2023-08-20T10:54:09;6.90;;;6.10;;
57315;SDS011;43156;50.942;18.144;2023-08-20T10:56:45;6.40;;;5.90;;
57315;SDS011;43156;50.942;18.144;2023-08-20T10:59:41;7.10;;;6.40;;
57315;SDS011;43156;50.942;18.144;2023-08-20T11:02:26;7.00;;;5.90;;
57315;SDS011;43156;50.942;18.144;2023-08-20T11:04:59;6.90;;;6.30;;
57315;SDS011;43156;50.942;18.144;2023-08-20T11:08:00;6.60;;;6.10;;
57315;SDS011;43156;50.942;18.144;2023-08-20T11:10:31;6.80;;;6.00;;
57315;SDS011;43156;50.942;18.144;2023-08-20T11:13:06;6.30;;;5.80;;
57315;SDS011;43156;50.942;18.144;2023-08-20T11:15:38;6.30;;;5.80;;
57315;SDS011;43156;50.942;18.144;2023-08-20T11:18:17;6.50;;;5.90;;
57315;SDS011;43156;50.942;18.144;2023-08-20T11:20:44;6.40;;;5.80;;
57315;SDS011;43156;50.942;18.144;2023-08-20T11:23:20;6.30;;;5.70;;
57315;SDS011;43156;50.942;18.144;2023-08-20T11:25:51;6.60;;;6.00;;
57315;SDS011;43156;50.942;18.144;2023-08-20T11:28:24;6.20;;;5.80;;
57315;SDS011;43156;50.942;18.144;2023-08-20T11:31:03;6.80;;;6.20;;
57315;SDS011;43156;50.942;18.144;2023-08-20T11:33:39;6.40;;;5.90;;
57315;SDS011;43156;50.942;18.144;2023-08-20T11:36:11;8.50;;;5.90;;
57315;SDS011;43156;50.942;18.144;2023-08-20T11:38:50;6.60;;;6.00;;
57315;SDS011;43156;50.942;18.144;2023-08-20T11:41:20;6.40;;;5.80;;
57315;SDS011;43156;50.942;18.144;2023-08-20T11:43:57;6.00;;;5.40;;
57315;SDS011;43156;50.942;18.144;2023-08-20T11:46:29;6.10;;;5.60;;
57315;SDS011;43156;50.942;18.144;2023-08-20T11:49:05;6.50;;;5.50;;
57315;SDS011;43156;50.942;18.144;2023-08-20T11:51:43;5.40;;;5.00;;
57315;SDS011;43156;50.942;18.144;2023-08-20T11:54:16;5.00;;;4.60;;
57315;SDS011;43156;50.942;18.144;2023-08-20T11:56:48;5.20;;;4.70;;
57315;SDS011;43156;50.942;18.144;2023-08-20T11:59:23;5.60;;;5.10;;
57315;SDS011;43156;50.942;18.144;2023-08-20T12:01:58;5.30;;;4.90;;
57315;SDS011;43156;50.942;18.144;2023-08-20T12:04:31;5.50;;;5.10;;
57315;SDS011;43156;50.942;18.144;2023-08-20T12:07:12;5.00;;;4.60;;
57315;SDS011;43156;50.942;18.144;2023-08-20T12:09:44;4.90;;;4.50;;
57315;SDS011;43156;50.942;18.144;2023-08-20T12:12:17;4.90;;;4.40;;
57315;SDS011;43156;50.942;18.144;2023-08-20T12:14:51;4.90;;;4.50;;
57315;SDS011;43156;50.942;18.144;2023-08-20T12:17:29;5.10;;;4.60;;
57315;SDS011;43156;50.942;18.144;2023-08-20T12:20:00;4.70;;;4.30;;
57315;SDS011;43156;50.942;18.144;2023-08-20T12:22:36;5.30;;;4.20;;
57315;SDS011;43156;50.942;18.144;2023-08-20T12:25:09;5.10;;;4.60;;
57315;SDS011;43156;50.942;18.144;2023-08-20T12:27:41;5.20;;;4.40;;
57315;SDS011;43156;50.942;18.144;2023-08-20T12:30:18;4.60;;;4.20;;
57315;SDS011;43156;50.942;18.144;2023-08-20T12:32:52;5.70;;;4.30;;
57315;SDS011;43156;50.942;18.144;2023-08-20T12:35:25;4.40;;;3.80;;
57315;SDS011;43156;50.942;18.144;2023-08-20T12:37:55;4.50;;;4.20;;
57315;SDS011;43156;50.942;18.144;2023-08-20T12:40:38;4.50;;;4.00;;
57315;SDS011;43156;50.942;18.144;2023-08-20T12:43:16;4.40;;;4.10;;
57315;SDS011;43156;50.942;18.144;2023-08-20T12:45:45;4.60;;;3.90;;
57315;SDS011;43156;50.942;18.144;2023-08-20T12:48:18;4.80;;;4.30;;
57315;SDS011;43156;50.942;18.144;2023-08-20T12:50:55;5.00;;;4.10;;
57315;SDS011;43156;50.942;18.144;2023-08-20T12:53:32;4.20;;;3.90;;
57315;SDS011;43156;50.942;18.144;2023-08-20T12:56:03;4.80;;;4.30;;
57315;SDS011;43156;50.942;18.144;2023-08-20T12:58:39;4.50;;;4.10;;
57315;SDS011;43156;50.942;18.144;2023-08-20T13:01:19;4.10;;;3.80;;
57315;SDS011;43156;50.942;18.144;2023-08-20T13:03:55;4.20;;;3.90;;
57315;SDS011;43156;50.942;18.144;2023-08-20T13:08:53;4.60;;;4.10;;
57315;SDS011;43156;50.942;18.144;2023-08-20T13:11:25;4.00;;;3.70;;
57315;SDS011;43156;50.942;18.144;2023-08-20T13:13:58;5.10;;;3.90;;
57315;SDS011;43156;50.942;18.144;2023-08-20T13:16:30;4.40;;;4.10;;
57315;SDS011;43156;50.942;18.144;2023-08-20T13:19:06;4.10;;;3.70;;
57315;SDS011;43156;50.942;18.144;2023-08-20T13:21:35;4.70;;;4.00;;
57315;SDS011;43156;50.942;18.144;2023-08-20T13:24:08;3.80;;;3.50;;
57315;SDS011;43156;50.942;18.144;2023-08-20T13:26:41;4.00;;;3.70;;
57315;SDS011;43156;50.942;18.144;2023-08-20T13:29:09;4.10;;;3.80;;
57315;SDS011;43156;50.942;18.144;2023-08-20T13:31:45;4.20;;;3.90;;
57315;SDS011;43156;50.942;18.144;2023-08-20T13:34:19;6.40;;;4.30;;
57315;SDS011;43156;50.942;18.144;2023-08-20T13:37:05;4.30;;;3.90;;
57315;SDS011;43156;50.942;18.144;2023-08-20T13:39:51;4.50;;;4.00;;
57315;SDS011;43156;50.942;18.144;2023-08-20T13:42:22;5.10;;;4.40;;
57315;SDS011;43156;50.942;18.144;2023-08-20T13:45:02;4.60;;;4.10;;
57315;SDS011;43156;50.942;18.144;2023-08-20T13:47:32;4.40;;;4.00;;
57315;SDS011;43156;50.942;18.144;2023-08-20T13:50:07;4.30;;;3.90;;
57315;SDS011;43156;50.942;18.144;2023-08-20T13:52:42;4.60;;;4.20;;
57315;SDS011;43156;50.942;18.144;2023-08-20T13:55:16;4.80;;;4.20;;
57315;SDS011;43156;50.942;18.144;2023-08-20T13:57:53;4.40;;;4.10;;
57315;SDS011;43156;50.942;18.144;2023-08-20T14:00:25;4.60;;;4.20;;
57315;SDS011;43156;50.942;18.144;2023-08-20T14:02:57;5.10;;;4.60;;
57315;SDS011;43156;50.942;18.144;2023-08-20T14:05:39;5.20;;;4.60;;
57315;SDS011;43156;50.942;18.144;2023-08-20T14:08:13;5.00;;;4.60;;
57315;SDS011;43156;50.942;18.144;2023-08-20T14:10:47;5.20;;;4.70;;
57315;SDS011;43156;50.942;18.144;2023-08-20T14:13:36;4.60;;;4.20;;
57315;SDS011;43156;50.942;18.144;2023-08-20T14:16:06;4.80;;;4.50;;
57315;SDS011;43156;50.942;18.144;2023-08-20T14:18:40;4.90;;;4.50;;
57315;SDS011;43156;50.942;18.144;2023-08-20T14:21:27;5.00;;;4.60;;
57315;SDS011;43156;50.942;18.144;2023-08-20T14:24:06;5.70;;;4.70;;
57315;SDS011;43156;50.942;18.144;2023-08-20T14:26:41;5.00;;;4.60;;
57315;SDS011;43156;50.942;18.144;2023-08-20T14:29:11;5.20;;;4.70;;
57315;SDS011;43156;50.942;18.144;2023-08-20T14:31:43;5.40;;;4.90;;
57315;SDS011;43156;50.942;18.144;2023-08-20T14:34:18;6.10;;;4.70;;
57315;SDS011;43156;50.942;18.144;2023-08-20T14:36:45;5.60;;;5.10;;
57315;SDS011;43156;50.942;18.144;2023-08-20T14:39:23;5.30;;;4.80;;
57315;SDS011;43156;50.942;18.144;2023-08-20T14:41:55;5.00;;;4.50;;
57315;SDS011;43156;50.942;18.144;2023-08-20T14:44:26;6.60;;;4.80;;
57315;SDS011;43156;50.942;18.144;2023-08-20T14:46:56;5.00;;;4.60;;
57315;SDS011;43156;50.942;18.144;2023-08-20T14:49:34;5.20;;;4.70;;
57315;SDS011;43156;50.942;18.144;2023-08-20T14:52:14;5.90;;;4.50;;
57315;SDS011;43156;50.942;18.144;2023-08-20T14:54:46;4.90;;;4.40;;
57315;SDS011;43156;50.942;18.144;2023-08-20T14:57:20;4.70;;;4.40;;
57315;SDS011;43156;50.942;18.144;2023-08-20T15:00:00;4.80;;;4.30;;
57315;SDS011;43156;50.942;18.144;2023-08-20T15:02:44;4.80;;;4.20;;
57315;SDS011;43156;50.942;18.144;2023-08-20T15:05:14;5.00;;;4.30;;
57315;SDS011;43156;50.942;18.144;2023-08-20T15:08:02;4.70;;;4.10;;
57315;SDS011;43156;50.942;18.144;2023-08-20T15:10:31;4.50;;;4.10;;
57315;SDS011;43156;50.942;18.144;2023-08-20T15:13:04;4.50;;;4.20;;
57315;SDS011;43156;50.942;18.144;2023-08-20T15:15:39;4.50;;;4.10;;
57315;SDS011;43156;50.942;18.144;2023-08-20T15:18:15;5.20;;;4.20;;
57315;SDS011;43156;50.942;18.144;2023-08-20T15:20:55;5.50;;;3.90;;
57315;SDS011;43156;50.942;18.144;2023-08-20T15:23:23;6.40;;;3.90;;
57315;SDS011;43156;50.942;18.144;2023-08-20T15:25:56;5.10;;;3.70;;
57315;SDS011;43156;50.942;18.144;2023-08-20T15:28:34;4.10;;;3.80;;
57315;SDS011;43156;50.942;18.144;2023-08-20T15:31:05;4.90;;;4.00;;
57315;SDS011;43156;50.942;18.144;2023-08-20T15:33:44;4.70;;;4.10;;